Terminal Aerodrome Forecast
Issued by NWS Paducah, KY

Home | Current Version | Previous Version | Text Only | Print | Product List | Glossary On
Versions: 1 2 3 4 5 6 7 8 9 10 11 12 13 14 15 16 17 18 19 20 21 22
000
FTUS43 KPAH 230147 AAA
TAFPAH
TAF AMD
KPAH 230147Z 2302/2324 20004KT P6SM FEW040
     FM230600 20004KT 6SM BR SCT060
     FM231000 20003KT 4SM BR BKN025
     FM231500 19007KT P6SM BKN035=

USA.gov is the U.S. government's official web portal to all federal, state and local government web resources and services.